Presidente Juscelino, Brazil
Current Conditions -  °F | °C
As of 6:00 AM on Friday 24 Oct 2014 (Local Time) from SBSL Reporting Station
Scattered Clouds Scattered Clouds  
Wind Chill: 79°   Ceiling: Unl
Heat Index: 81°   Visibility: 6mi
Dew Point: 70°   Wind: 12mph
Humidity: 74%   Direction: 60°ENE
Pressure: 29.83"   Gusts: NA
Location:  2.93°S, 44.06°W
Report Text: SBSL 240900Z 06010KT 9999 SCT017 26/21 Q1010
Loading
Personal Weather Stations






























Interactive Weather Map
Tropical Storm Tracking
New forecast layout! Learn more

10-Day Weather Forecast

Advertisements
Track Severe Weather on mobile